createdAt,value
2022-09-28T00:01:27.599Z,99.90
2022-09-28T00:05:31.984Z,99.90
2022-09-28T00:09:36.775Z,99.90
2022-09-28T00:13:40.480Z,99.90
2022-09-28T00:17:44.827Z,99.90
2022-09-28T00:21:48.101Z,99.90
2022-09-28T00:25:52.836Z,99.90
2022-09-28T00:29:56.057Z,99.90
2022-09-28T00:34:00.502Z,99.90
2022-09-28T00:38:04.058Z,99.90
2022-09-28T00:42:15.666Z,99.90
2022-09-28T00:46:23.904Z,99.90
2022-09-28T00:50:30.574Z,99.90
2022-09-28T00:54:36.147Z,99.90
2022-09-28T00:58:45.622Z,99.90
2022-09-28T01:02:49.495Z,99.90
2022-09-28T01:06:53.486Z,99.90
2022-09-28T01:10:56.779Z,99.90
2022-09-28T01:15:02.566Z,99.90
2022-09-28T01:19:24.954Z,99.90
2022-09-28T01:24:00.959Z,99.90
2022-09-28T01:28:09.115Z,99.90
2022-09-28T01:32:23.615Z,99.90
2022-09-28T01:36:30.914Z,99.90
2022-09-28T01:40:36.203Z,99.90
2022-09-28T01:44:45.786Z,99.90
2022-09-28T01:48:53.445Z,99.90
2022-09-28T01:53:01.900Z,99.90
2022-09-28T01:57:11.786Z,99.90
2022-09-28T02:01:23.570Z,99.90
2022-09-28T02:05:31.453Z,99.90
2022-09-28T02:09:41.118Z,99.90
2022-09-28T02:13:47.378Z,99.90
2022-09-28T02:17:52.613Z,99.90
2022-09-28T02:22:00.427Z,99.90
2022-09-28T02:26:06.289Z,99.90
2022-09-28T02:30:10.825Z,99.90
2022-09-28T02:34:15.394Z,99.90
2022-09-28T02:38:18.809Z,99.90
2022-09-28T02:42:26.237Z,99.90
2022-09-28T02:46:33.955Z,99.90
2022-09-28T02:50:49.529Z,99.90
2022-09-28T02:55:18.984Z,99.90
2022-09-28T02:59:37.487Z,99.90
2022-09-28T03:03:50.087Z,99.90
2022-09-28T03:08:00.338Z,99.90
2022-09-28T03:12:10.773Z,99.90
2022-09-28T03:16:16.212Z,99.90
2022-09-28T03:20:20.575Z,99.90
2022-09-28T03:24:25.286Z,99.90
2022-09-28T03:28:29.588Z,99.90
2022-09-28T03:32:32.991Z,99.90
2022-09-28T03:36:36.361Z,99.90
2022-09-28T03:40:41.016Z,99.90
2022-09-28T03:44:44.250Z,99.90
2022-09-28T03:48:47.591Z,99.90
2022-09-28T03:52:50.867Z,99.90
2022-09-28T03:56:56.702Z,99.90
2022-09-28T04:01:04.611Z,99.90
2022-09-28T04:05:09.425Z,99.90
2022-09-28T04:09:13.244Z,99.90
2022-09-28T04:13:18.912Z,99.90
2022-09-28T04:17:22.190Z,99.90
2022-09-28T04:21:25.690Z,99.90
2022-09-28T04:25:28.928Z,99.90
2022-09-28T04:29:33.730Z,99.90
2022-09-28T04:33:36.991Z,99.90
2022-09-28T04:37:40.325Z,99.90
2022-09-28T04:41:44.281Z,99.90
2022-09-28T04:45:49.363Z,99.90
2022-09-28T04:49:52.630Z,99.90
2022-09-28T04:53:56.917Z,99.90
2022-09-28T04:58:02.732Z,99.90
2022-09-28T05:02:07.405Z,99.90
2022-09-28T05:06:14.345Z,99.90
2022-09-28T05:10:18.917Z,99.90
2022-09-28T05:14:23.053Z,99.90
2022-09-28T05:18:28.092Z,99.90
2022-09-28T05:22:31.303Z,99.90
2022-09-28T05:26:34.675Z,99.90
2022-09-28T05:30:38.326Z,99.90
2022-09-28T05:34:43.016Z,99.90
2022-09-28T05:38:46.997Z,99.90
2022-09-28T05:42:50.383Z,99.90
2022-09-28T05:46:54.814Z,99.90
2022-09-28T05:51:00.552Z,99.90
2022-09-28T05:55:04.044Z,99.90
2022-09-28T05:59:07.462Z,99.90
2022-09-28T06:03:13.915Z,99.90
2022-09-28T06:07:20.977Z,99.90
2022-09-28T06:11:27.079Z,99.90
2022-09-28T06:15:33.745Z,99.90
2022-09-28T06:19:37.035Z,99.90
2022-09-28T06:23:45.598Z,99.90
2022-09-28T06:27:58.967Z,99.90
2022-09-28T06:32:02.654Z,99.90
2022-09-28T06:36:06.453Z,99.90
2022-09-28T06:40:11.637Z,99.90
2022-09-28T06:44:16.425Z,99.90
2022-09-28T06:48:20.319Z,99.90
2022-09-28T06:52:23.729Z,99.90
2022-09-28T06:56:32.729Z,99.90
2022-09-28T07:00:38.639Z,99.90
2022-09-28T07:04:43.568Z,99.90
2022-09-28T07:08:52.728Z,99.90
2022-09-28T07:13:35.116Z,99.90
2022-09-28T07:17:48.343Z,99.90
2022-09-28T07:22:04.893Z,99.90
2022-09-28T07:26:09.782Z,99.90
2022-09-28T07:30:15.203Z,99.90
2022-09-28T07:34:19.481Z,99.90
2022-09-28T07:38:23.560Z,99.90
2022-09-28T07:42:28.148Z,99.90
2022-09-28T07:46:34.702Z,99.90
2022-09-28T07:50:37.900Z,99.90
2022-09-28T07:54:41.140Z,99.90
2022-09-28T07:58:45.441Z,99.90
2022-09-28T08:02:50.735Z,99.90
2022-09-28T08:06:54.587Z,99.90
2022-09-28T08:10:58.565Z,99.90
2022-09-28T08:15:01.796Z,99.90
2022-09-28T08:19:06.664Z,99.90
2022-09-28T08:23:11.641Z,99.90
2022-09-28T08:27:17.465Z,99.90
2022-09-28T08:31:20.723Z,99.90
2022-09-28T08:35:26.383Z,99.90
2022-09-28T08:39:29.683Z,99.90
2022-09-28T08:43:51.419Z,99.90
2022-09-28T08:48:17.248Z,99.90
2022-09-28T08:52:25.218Z,99.90
2022-09-28T08:56:34.083Z,99.90
2022-09-28T09:00:44.905Z,99.90
2022-09-28T09:04:48.938Z,99.90
2022-09-28T09:09:04.667Z,99.90
2022-09-28T09:13:27.738Z,99.90
2022-09-28T09:17:41.911Z,99.90
2022-09-28T09:21:52.605Z,99.90
2022-09-28T09:26:03.872Z,99.90
2022-09-28T09:30:10.895Z,99.90
2022-09-28T09:34:38.401Z,99.90
2022-09-28T09:38:51.883Z,99.90
2022-09-28T09:43:15.355Z,99.90
2022-09-28T09:47:22.478Z,99.90
2022-09-28T09:51:38.445Z,99.90
2022-09-28T09:55:44.885Z,99.60
2022-09-28T09:59:50.576Z,98.80
2022-09-28T10:03:54.288Z,97.90
2022-09-28T10:08:04.863Z,98.00
2022-09-28T10:12:11.241Z,99.60
2022-09-28T10:16:17.547Z,99.70
2022-09-28T10:20:21.923Z,99.90
2022-09-28T10:24:33.945Z,99.90
2022-09-28T10:28:42.284Z,99.90
2022-09-28T10:32:48.842Z,99.90
2022-09-28T10:36:56.321Z,99.90
2022-09-28T10:41:02.107Z,99.90
2022-09-28T10:45:21.144Z,99.90
2022-09-28T10:49:28.671Z,99.90
2022-09-28T10:53:33.032Z,99.90
2022-09-28T10:57:39.930Z,99.90
2022-09-28T11:01:44.425Z,99.60
2022-09-28T11:05:57.828Z,99.30
2022-09-28T11:10:02.128Z,99.90
2022-09-28T11:14:05.420Z,98.60
2022-09-28T11:18:32.384Z,99.90
2022-09-28T11:22:42.637Z,98.90
2022-09-28T11:26:48.775Z,97.50
2022-09-28T11:30:54.708Z,96.40
2022-09-28T11:35:01.300Z,95.70
2022-09-28T11:39:12.737Z,93.50
2022-09-28T11:43:43.077Z,92.00
2022-09-28T11:47:54.573Z,91.90
2022-09-28T11:52:02.161Z,91.60
2022-09-28T11:56:18.164Z,91.60
2022-09-28T12:00:22.970Z,89.30
2022-09-28T12:04:31.281Z,88.00
2022-09-28T12:08:41.244Z,85.70
2022-09-28T12:12:51.505Z,78.80
2022-09-28T12:17:07.654Z,76.10
2022-09-28T12:21:32.540Z,72.90
2022-09-28T12:25:42.095Z,72.10
2022-09-28T12:29:51.758Z,68.80
2022-09-28T12:33:55.483Z,65.70
2022-09-28T12:38:19.447Z,66.20
2022-09-28T12:42:39.699Z,66.90
2022-09-28T12:46:58.590Z,70.60
2022-09-28T12:51:13.293Z,77.80
2022-09-28T12:55:42.644Z,79.30
2022-09-28T13:00:01.206Z,80.00
2022-09-28T13:04:19.367Z,83.00
2022-09-28T13:08:28.524Z,87.20
2022-09-28T13:12:45.486Z,87.90
2022-09-28T13:16:58.398Z,89.80
2022-09-28T13:21:26.623Z,90.50
2022-09-28T13:25:36.298Z,90.80
2022-09-28T13:29:40.693Z,91.70
2022-09-28T13:33:47.451Z,92.30
2022-09-28T13:38:32.515Z,93.60
2022-09-28T13:43:05.782Z,93.00
2022-09-28T13:47:23.418Z,93.00
2022-09-28T13:51:38.885Z,93.90
2022-09-28T13:55:55.446Z,95.80
2022-09-28T14:00:10.550Z,96.90
2022-09-28T14:04:19.129Z,96.60
2022-09-28T14:08:46.196Z,97.60
2022-09-28T14:12:51.649Z,97.40
2022-09-28T14:17:16.536Z,97.60
2022-09-28T14:21:54.675Z,99.70
2022-09-28T14:26:24.353Z,99.90
2022-09-28T14:30:45.385Z,99.90
2022-09-28T14:34:57.573Z,99.90
2022-09-28T14:39:18.589Z,99.90
2022-09-28T14:43:35.996Z,99.90
2022-09-28T14:47:44.012Z,99.90
2022-09-28T14:52:05.075Z,99.90
2022-09-28T14:56:10.354Z,99.90
2022-09-28T15:00:22.101Z,99.90
2022-09-28T15:04:30.512Z,99.90
2022-09-28T15:08:39.177Z,99.90
2022-09-28T15:12:47.275Z,99.90
2022-09-28T15:16:51.507Z,99.90
2022-09-28T15:20:57.905Z,99.90
2022-09-28T15:25:03.233Z,99.90
2022-09-28T15:29:18.642Z,99.90
2022-09-28T15:33:44.320Z,99.90
2022-09-28T15:37:52.148Z,99.90
2022-09-28T15:41:55.960Z,99.90
2022-09-28T15:46:04.915Z,99.90
2022-09-28T15:50:22.491Z,99.90
2022-09-28T15:54:32.251Z,99.90
2022-09-28T15:58:35.843Z,99.90
2022-09-28T16:02:39.145Z,99.90
2022-09-28T16:06:42.576Z,99.90
2022-09-28T16:10:57.122Z,99.90
2022-09-28T16:15:05.400Z,99.90
2022-09-28T16:19:23.669Z,99.90
2022-09-28T16:23:30.228Z,99.90
2022-09-28T16:27:44.736Z,99.90
2022-09-28T16:31:52.845Z,99.90
2022-09-28T16:35:56.790Z,99.90
2022-09-28T16:40:00.501Z,99.90
2022-09-28T16:44:05.168Z,99.90
2022-09-28T16:48:11.110Z,99.90
2022-09-28T16:52:36.410Z,99.90
2022-09-28T16:56:39.870Z,99.90
2022-09-28T17:00:45.867Z,99.90
2022-09-28T17:04:49.211Z,99.90
2022-09-28T17:08:52.729Z,99.90
2022-09-28T17:12:56.327Z,99.90
2022-09-28T17:17:08.953Z,99.90
2022-09-28T17:21:18.835Z,99.90
2022-09-28T17:25:24.377Z,99.90
2022-09-28T17:29:27.857Z,99.90
2022-09-28T17:33:32.685Z,99.90
2022-09-28T17:37:36.401Z,99.90
2022-09-28T17:41:40.316Z,99.90
2022-09-28T17:45:47.542Z,99.90
2022-09-28T17:49:53.898Z,99.90
2022-09-28T17:53:57.390Z,99.90
2022-09-28T17:58:03.498Z,99.90
2022-09-28T18:02:11.479Z,99.90
2022-09-28T18:06:21.587Z,99.90
2022-09-28T18:10:36.246Z,99.90
2022-09-28T18:14:42.280Z,99.90
2022-09-28T18:18:52.513Z,99.90
2022-09-28T18:23:09.608Z,99.90
2022-09-28T18:27:16.610Z,99.90
2022-09-28T18:31:27.963Z,99.90
2022-09-28T18:35:33.678Z,99.90
2022-09-28T18:39:44.447Z,99.90
2022-09-28T18:43:50.947Z,99.90
2022-09-28T18:47:57.895Z,99.90
2022-09-28T18:52:05.997Z,99.90
2022-09-28T18:56:16.246Z,99.90
2022-09-28T19:00:26.231Z,99.90
2022-09-28T19:04:32.706Z,99.90
2022-09-28T19:08:41.189Z,99.90
2022-09-28T19:12:47.904Z,99.90
2022-09-28T19:16:55.841Z,99.90
2022-09-28T19:21:06.031Z,99.90
2022-09-28T19:25:19.078Z,99.90
2022-09-28T19:29:27.354Z,99.90
2022-09-28T19:33:38.045Z,99.90
2022-09-28T19:37:42.329Z,99.90
2022-09-28T19:42:00.803Z,99.90
2022-09-28T19:46:15.918Z,99.90
2022-09-28T19:50:19.689Z,99.90
2022-09-28T19:54:25.624Z,99.90
2022-09-28T19:58:32.282Z,99.90
2022-09-28T20:02:38.178Z,99.90
2022-09-28T20:06:42.248Z,99.90
2022-09-28T20:10:51.392Z,99.90
2022-09-28T20:14:54.615Z,99.90
2022-09-28T20:19:03.463Z,99.90
2022-09-28T20:23:06.939Z,99.90
2022-09-28T20:27:11.231Z,99.90
2022-09-28T20:31:16.374Z,99.90
2022-09-28T20:35:32.345Z,99.90
2022-09-28T20:39:36.245Z,99.90
2022-09-28T20:43:40.676Z,99.90
2022-09-28T20:47:44.029Z,99.90
2022-09-28T20:51:48.736Z,99.90
2022-09-28T20:55:59.108Z,99.90
2022-09-28T21:00:02.785Z,99.90
2022-09-28T21:04:08.044Z,99.90
2022-09-28T21:08:13.049Z,99.90
2022-09-28T21:12:16.524Z,99.90
2022-09-28T21:16:19.841Z,99.90
2022-09-28T21:20:23.493Z,99.90
2022-09-28T21:24:28.424Z,99.90
2022-09-28T21:28:31.856Z,99.90
2022-09-28T21:32:35.487Z,99.90
2022-09-28T21:36:38.868Z,99.90
2022-09-28T21:40:43.509Z,99.90
2022-09-28T21:44:46.771Z,99.90
2022-09-28T21:48:53.627Z,99.90
2022-09-28T21:52:57.610Z,99.90
2022-09-28T21:57:02.214Z,99.90
2022-09-28T22:01:07.847Z,99.90
2022-09-28T22:05:12.408Z,99.90
2022-09-28T22:09:16.815Z,99.90
2022-09-28T22:13:21.410Z,99.90
2022-09-28T22:17:25.135Z,99.90
2022-09-28T22:21:30.219Z,99.90
2022-09-28T22:25:33.559Z,99.90
2022-09-28T22:29:38.231Z,99.90
2022-09-28T22:33:41.564Z,99.90
2022-09-28T22:37:44.829Z,99.90
2022-09-28T22:41:48.378Z,99.90
2022-09-28T22:46:02.327Z,99.90
2022-09-28T22:50:06.398Z,99.90
2022-09-28T22:54:09.812Z,99.90
2022-09-28T22:58:13.649Z,99.90
2022-09-28T23:02:19.315Z,99.90
2022-09-28T23:06:24.549Z,99.90
2022-09-28T23:10:28.025Z,99.90
2022-09-28T23:14:31.227Z,99.90
2022-09-28T23:18:37.903Z,99.90
2022-09-28T23:22:41.072Z,99.90
2022-09-28T23:26:44.438Z,99.90
2022-09-28T23:30:48.301Z,99.90
2022-09-28T23:34:53.071Z,99.90
2022-09-28T23:38:56.632Z,99.90
2022-09-28T23:42:59.973Z,99.90
2022-09-28T23:47:03.404Z,99.90
2022-09-28T23:51:08.257Z,99.90
2022-09-28T23:55:11.647Z,99.90
2022-09-28T23:59:14.901Z,99.90
